createdAt,value
2022-10-05T00:00:21.543Z,89.22
2022-10-05T00:03:12.011Z,89.13
2022-10-05T00:05:39.585Z,89.07
2022-10-05T00:08:19.984Z,88.88
2022-10-05T00:10:47.927Z,88.77
2022-10-05T00:13:19.430Z,89.03
2022-10-05T00:15:47.234Z,89.29
2022-10-05T00:18:16.972Z,88.66
2022-10-05T00:20:45.039Z,88.88
2022-10-05T00:23:26.034Z,88.75
2022-10-05T00:25:53.205Z,88.59
2022-10-05T00:28:28.990Z,88.83
2022-10-05T00:30:58.310Z,88.83
2022-10-05T00:33:27.021Z,88.42
2022-10-05T00:35:55.160Z,88.56
2022-10-05T00:38:22.542Z,88.58
2022-10-05T00:41:07.081Z,88.31
2022-10-05T00:43:42.966Z,88.53
2022-10-05T00:46:12.867Z,88.68
2022-10-05T00:48:48.874Z,88.88
2022-10-05T00:51:19.675Z,88.94
2022-10-05T00:54:01.904Z,88.80
2022-10-05T00:56:56.354Z,88.87
2022-10-05T00:59:30.172Z,88.77
2022-10-05T01:02:26.791Z,88.69
2022-10-05T01:05:03.361Z,88.83
2022-10-05T01:08:02.005Z,88.74
2022-10-05T01:10:41.130Z,88.55
2022-10-05T01:13:20.150Z,88.15
2022-10-05T01:16:05.787Z,88.06
2022-10-05T01:19:10.172Z,88.09
2022-10-05T01:21:50.329Z,88.14
2022-10-05T01:24:34.236Z,87.95
2022-10-05T01:27:13.689Z,88.15
2022-10-05T01:29:53.945Z,88.39
2022-10-05T01:32:52.086Z,88.11
2022-10-05T01:35:25.252Z,88.01
2022-10-05T01:38:02.811Z,87.74
2022-10-05T01:40:34.932Z,87.84
2022-10-05T01:43:15.317Z,88.14
2022-10-05T01:46:03.275Z,88.31
2022-10-05T01:48:42.293Z,88.41
2022-10-05T01:51:30.793Z,88.64
2022-10-05T01:54:01.253Z,88.36
2022-10-05T01:56:51.395Z,88.42
2022-10-05T01:59:53.683Z,88.44
2022-10-05T02:02:23.676Z,88.83
2022-10-05T02:05:03.528Z,88.71
2022-10-05T02:07:39.484Z,88.79
2022-10-05T02:10:24.131Z,89.02
2022-10-05T02:12:58.805Z,89.18
2022-10-05T02:15:34.386Z,89.45
2022-10-05T02:18:11.457Z,89.53
2022-10-05T02:20:42.361Z,89.75
2022-10-05T02:23:18.017Z,90.04
2022-10-05T02:25:47.590Z,90.09
2022-10-05T02:28:30.799Z,89.96
2022-10-05T02:31:04.563Z,90.20
2022-10-05T02:33:33.717Z,90.37
2022-10-05T02:36:16.291Z,90.42
2022-10-05T02:38:51.546Z,90.66
2022-10-05T02:41:36.663Z,90.73
2022-10-05T02:44:15.814Z,90.83
2022-10-05T02:46:56.770Z,91.03
2022-10-05T02:49:47.776Z,91.15
2022-10-05T02:52:29.203Z,91.32
2022-10-05T02:55:15.243Z,91.45
2022-10-05T02:57:50.954Z,91.39
2022-10-05T03:00:24.137Z,91.63
2022-10-05T03:03:29.933Z,91.59
2022-10-05T03:06:09.091Z,91.82
2022-10-05T03:08:36.154Z,91.76
2022-10-05T03:11:39.161Z,91.90
2022-10-05T03:14:12.374Z,92.09
2022-10-05T03:17:00.559Z,92.07
2022-10-05T03:19:41.046Z,92.22
2022-10-05T03:22:31.695Z,92.36
2022-10-05T03:25:01.407Z,92.56
2022-10-05T03:27:44.733Z,92.34
2022-10-05T03:30:22.909Z,92.61
2022-10-05T03:33:22.811Z,92.34
2022-10-05T03:36:09.850Z,92.34
2022-10-05T03:38:42.651Z,92.43
2022-10-05T03:41:20.054Z,92.34
2022-10-05T03:43:52.728Z,92.17
2022-10-05T03:46:28.972Z,92.40
2022-10-05T03:49:15.890Z,92.51
2022-10-05T03:51:51.419Z,92.72
2022-10-05T03:54:47.277Z,93.13
2022-10-05T03:57:23.561Z,93.04
2022-10-05T04:00:03.374Z,92.96
2022-10-05T04:02:49.205Z,92.68
2022-10-05T04:05:21.816Z,92.76
2022-10-05T04:07:58.177Z,93.02
2022-10-05T04:10:27.307Z,93.07
2022-10-05T04:13:01.417Z,93.24
2022-10-05T04:15:40.304Z,93.25
2022-10-05T04:18:34.313Z,93.40
2022-10-05T04:21:11.516Z,93.23
2022-10-05T04:23:53.701Z,92.72
2022-10-05T04:26:29.582Z,92.76
2022-10-05T04:29:06.134Z,92.97
2022-10-05T04:32:20.722Z,92.96
2022-10-05T04:35:09.366Z,93.13
2022-10-05T04:38:04.238Z,93.21
2022-10-05T04:40:59.293Z,93.40
2022-10-05T04:43:44.712Z,93.54
2022-10-05T04:46:36.840Z,93.70
2022-10-05T04:49:52.063Z,94.00
2022-10-05T04:52:40.379Z,94.07
2022-10-05T04:55:29.365Z,94.03
2022-10-05T04:58:10.732Z,94.27
2022-10-05T05:00:56.876Z,94.77
2022-10-05T05:03:27.093Z,94.46
2022-10-05T05:06:17.945Z,94.68
2022-10-05T05:09:08.202Z,94.68
2022-10-05T05:11:43.057Z,94.51
2022-10-05T05:14:39.960Z,94.60
2022-10-05T05:17:44.974Z,94.54
2022-10-05T05:20:15.209Z,94.55
2022-10-05T05:23:02.819Z,94.38
2022-10-05T05:25:46.660Z,94.13
2022-10-05T05:28:20.945Z,93.95
2022-10-05T05:31:24.205Z,94.11
2022-10-05T05:34:04.152Z,93.80
2022-10-05T05:36:44.319Z,93.89
2022-10-05T05:39:17.690Z,93.80
2022-10-05T05:42:23.901Z,92.88
2022-10-05T05:44:55.131Z,92.95
2022-10-05T05:47:23.007Z,93.06
2022-10-05T05:50:07.585Z,93.19
2022-10-05T05:52:52.739Z,93.35
2022-10-05T05:55:29.774Z,92.94
2022-10-05T05:58:05.963Z,92.43
2022-10-05T06:00:40.390Z,92.34
2022-10-05T06:03:30.365Z,92.17
2022-10-05T06:06:01.871Z,91.90
2022-10-05T06:09:04.237Z,91.60
2022-10-05T06:11:58.307Z,91.24
2022-10-05T06:14:34.161Z,90.24
2022-10-05T06:17:07.494Z,90.34
2022-10-05T06:19:38.171Z,90.12
2022-10-05T06:22:15.066Z,89.79
2022-10-05T06:24:54.593Z,89.90
2022-10-05T06:28:03.566Z,89.87
2022-10-05T06:30:59.607Z,89.89
2022-10-05T06:33:45.353Z,89.41
2022-10-05T06:36:24.942Z,89.58
2022-10-05T06:39:29.420Z,89.20
2022-10-05T06:42:25.345Z,88.39
2022-10-05T06:45:36.494Z,88.10
2022-10-05T06:48:52.960Z,88.07
2022-10-05T06:52:13.340Z,87.39
2022-10-05T06:54:55.983Z,86.93
2022-10-05T06:58:00.136Z,86.85
2022-10-05T07:00:45.978Z,86.39
2022-10-05T07:03:35.135Z,85.70
2022-10-05T07:06:25.476Z,85.61
2022-10-05T07:09:26.321Z,85.41
2022-10-05T07:12:30.551Z,85.62
2022-10-05T07:15:23.764Z,85.72
2022-10-05T07:18:29.375Z,85.45
2022-10-05T07:21:39.649Z,85.15
2022-10-05T07:24:51.745Z,84.54
2022-10-05T07:27:25.373Z,84.70
2022-10-05T07:30:01.592Z,84.54
2022-10-05T07:32:55.787Z,84.52
2022-10-05T07:35:56.337Z,84.25
2022-10-05T07:38:33.043Z,83.88
2022-10-05T07:41:15.849Z,83.51
2022-10-05T07:44:02.411Z,83.05
2022-10-05T07:46:44.917Z,82.32
2022-10-05T07:49:47.756Z,81.44
2022-10-05T07:52:30.005Z,81.03
2022-10-05T07:55:22.949Z,80.33
2022-10-05T07:58:23.383Z,79.45
2022-10-05T08:00:58.379Z,78.90
2022-10-05T08:03:47.396Z,77.98
2022-10-05T08:06:39.789Z,77.71
2022-10-05T08:09:18.790Z,78.08
2022-10-05T08:12:09.530Z,78.27
2022-10-05T08:14:55.792Z,77.96
2022-10-05T08:17:44.206Z,77.30
2022-10-05T08:20:33.041Z,77.05
2022-10-05T08:23:16.060Z,77.17
2022-10-05T08:25:48.067Z,77.15
2022-10-05T08:28:25.645Z,76.81
2022-10-05T08:31:03.487Z,76.84
2022-10-05T08:34:07.695Z,76.38
2022-10-05T08:37:08.795Z,75.39
2022-10-05T08:40:14.502Z,74.92
2022-10-05T08:43:43.372Z,74.19
2022-10-05T08:46:27.212Z,73.85
2022-10-05T08:49:04.700Z,73.29
2022-10-05T08:51:44.534Z,73.14
2022-10-05T08:54:37.685Z,73.06
2022-10-05T08:57:38.693Z,72.71
2022-10-05T09:00:13.161Z,72.30
2022-10-05T09:02:58.419Z,72.38
2022-10-05T09:05:46.957Z,72.59
2022-10-05T09:08:23.001Z,72.47
2022-10-05T09:11:12.728Z,71.94
2022-10-05T09:13:51.165Z,72.43
2022-10-05T09:16:55.886Z,72.16
2022-10-05T09:19:28.871Z,72.16
2022-10-05T09:22:34.105Z,71.63
2022-10-05T09:25:19.014Z,71.37
2022-10-05T09:27:56.774Z,71.02
2022-10-05T09:30:51.105Z,70.84
2022-10-05T09:33:43.979Z,69.25
2022-10-05T09:36:35.721Z,70.03
2022-10-05T09:39:26.306Z,70.40
2022-10-05T09:42:16.395Z,70.17
2022-10-05T09:45:25.932Z,69.50
2022-10-05T09:47:52.813Z,69.38
2022-10-05T09:50:51.719Z,69.52
2022-10-05T09:53:41.023Z,70.07
2022-10-05T09:56:47.550Z,70.29
2022-10-05T09:59:49.063Z,69.84
2022-10-05T10:02:34.733Z,69.99
2022-10-05T10:05:27.059Z,69.93
2022-10-05T10:08:28.293Z,69.78
2022-10-05T10:11:24.271Z,70.14
2022-10-05T10:14:16.409Z,69.60
2022-10-05T10:17:19.069Z,69.80
2022-10-05T10:20:04.085Z,70.31
2022-10-05T10:23:10.018Z,70.39
2022-10-05T10:25:43.237Z,68.71
2022-10-05T10:28:29.015Z,68.68
2022-10-05T10:31:26.344Z,67.52
2022-10-05T10:34:05.506Z,67.47
2022-10-05T10:36:55.801Z,66.95
2022-10-05T10:39:45.237Z,66.65
2022-10-05T10:42:26.355Z,67.09
2022-10-05T10:45:04.912Z,66.67
2022-10-05T10:47:44.266Z,66.31
2022-10-05T10:50:26.319Z,66.68
2022-10-05T10:53:14.851Z,66.98
2022-10-05T10:56:00.296Z,66.77
2022-10-05T10:59:00.734Z,66.76
2022-10-05T11:01:49.867Z,66.37
2022-10-05T11:04:50.052Z,65.50
2022-10-05T11:07:22.936Z,62.83
2022-10-05T11:10:02.254Z,62.18
2022-10-05T11:12:35.310Z,61.97
2022-10-05T11:15:30.785Z,62.02
2022-10-05T11:18:22.660Z,62.31
2022-10-05T11:21:00.567Z,61.73
2022-10-05T11:23:48.524Z,60.61
2022-10-05T11:26:32.559Z,59.60
2022-10-05T11:29:20.899Z,60.33
2022-10-05T11:32:16.922Z,61.29
2022-10-05T11:34:46.927Z,61.70
2022-10-05T11:37:31.957Z,61.96
2022-10-05T11:40:11.278Z,62.20
2022-10-05T11:42:49.251Z,60.75
2022-10-05T11:45:22.069Z,59.53
2022-10-05T11:47:58.247Z,60.25
2022-10-05T11:50:33.949Z,59.36
2022-10-05T11:53:22.049Z,59.52
2022-10-05T11:56:23.713Z,60.20
2022-10-05T11:58:58.276Z,59.78
2022-10-05T12:01:34.801Z,59.45
2022-10-05T12:04:28.305Z,58.52
2022-10-05T12:07:12.722Z,57.32
2022-10-05T12:10:17.600Z,57.77
2022-10-05T12:12:45.145Z,57.69
2022-10-05T12:15:17.582Z,58.07
2022-10-05T12:18:08.402Z,57.55
2022-10-05T12:20:35.457Z,58.07
2022-10-05T12:23:17.856Z,58.18
2022-10-05T12:25:58.310Z,58.71
2022-10-05T12:28:35.002Z,59.17
2022-10-05T12:31:17.497Z,59.32
2022-10-05T12:34:05.363Z,58.69
2022-10-05T12:37:04.701Z,59.11
2022-10-05T12:39:44.288Z,58.74
2022-10-05T12:42:18.099Z,59.10
2022-10-05T12:45:04.493Z,59.47
2022-10-05T12:48:00.927Z,59.65
2022-10-05T12:50:34.771Z,59.76
2022-10-05T12:53:14.573Z,60.10
2022-10-05T12:56:00.220Z,59.53
2022-10-05T12:58:34.417Z,59.80
2022-10-05T13:01:27.821Z,60.14
2022-10-05T13:04:38.460Z,60.46
2022-10-05T13:07:17.251Z,60.92
2022-10-05T13:09:44.262Z,61.37
2022-10-05T13:12:53.061Z,61.34
2022-10-05T13:15:28.899Z,61.14
2022-10-05T13:18:21.953Z,60.85
2022-10-05T13:21:04.598Z,60.81
2022-10-05T13:23:51.649Z,60.08
2022-10-05T13:26:27.088Z,60.24
2022-10-05T13:29:04.161Z,60.62
2022-10-05T13:31:40.932Z,61.20
2022-10-05T13:34:21.288Z,61.73
2022-10-05T13:37:23.959Z,61.89
2022-10-05T13:39:55.476Z,62.04
2022-10-05T13:42:32.844Z,62.11
2022-10-05T13:45:05.649Z,62.30
2022-10-05T13:47:55.286Z,62.26
2022-10-05T13:50:29.805Z,62.07
2022-10-05T13:53:31.771Z,62.65
2022-10-05T13:56:05.899Z,62.78
2022-10-05T13:58:46.142Z,63.00
2022-10-05T14:01:28.205Z,63.33
2022-10-05T14:04:05.212Z,63.58
2022-10-05T14:06:36.022Z,63.87
2022-10-05T14:09:03.668Z,64.41
2022-10-05T14:11:35.513Z,64.69
2022-10-05T14:14:46.513Z,64.90
2022-10-05T14:17:17.526Z,65.12
2022-10-05T14:19:48.060Z,65.39
2022-10-05T14:22:24.213Z,65.62
2022-10-05T14:25:13.718Z,65.76
2022-10-05T14:27:59.230Z,66.14
2022-10-05T14:30:32.112Z,66.07
2022-10-05T14:33:26.682Z,66.35
2022-10-05T14:35:56.850Z,66.63
2022-10-05T14:38:29.828Z,66.94
2022-10-05T14:41:12.418Z,67.00
2022-10-05T14:44:02.107Z,67.28
2022-10-05T14:46:34.252Z,67.35
2022-10-05T14:49:33.227Z,67.50
2022-10-05T14:52:00.236Z,67.73
2022-10-05T14:54:29.503Z,68.09
2022-10-05T14:57:29.268Z,68.33
2022-10-05T15:00:16.605Z,68.43
2022-10-05T15:03:07.953Z,68.66
2022-10-05T15:05:53.619Z,68.91
2022-10-05T15:08:41.489Z,69.51
2022-10-05T15:11:22.461Z,69.73
2022-10-05T15:13:50.221Z,70.08
2022-10-05T15:16:21.489Z,70.45
2022-10-05T15:18:57.131Z,70.64
2022-10-05T15:21:42.301Z,71.21
2022-10-05T15:24:20.404Z,71.73
2022-10-05T15:26:53.160Z,71.91
2022-10-05T15:29:49.801Z,72.69
2022-10-05T15:32:42.178Z,72.52
2022-10-05T15:35:37.078Z,73.08
2022-10-05T15:38:21.592Z,73.47
2022-10-05T15:41:02.420Z,73.72
2022-10-05T15:43:47.116Z,73.89
2022-10-05T15:46:25.530Z,74.27
2022-10-05T15:49:08.519Z,74.69
2022-10-05T15:51:50.869Z,74.91
2022-10-05T15:54:42.260Z,75.25
2022-10-05T15:57:40.328Z,75.62
2022-10-05T16:00:12.939Z,75.81
2022-10-05T16:02:58.516Z,76.01
2022-10-05T16:06:02.778Z,76.25
2022-10-05T16:08:51.045Z,76.70
2022-10-05T16:11:49.517Z,76.82
2022-10-05T16:14:28.105Z,77.12
2022-10-05T16:17:36.843Z,76.95
2022-10-05T16:20:18.584Z,77.34
2022-10-05T16:22:59.658Z,77.15
2022-10-05T16:25:50.870Z,77.38
2022-10-05T16:28:34.861Z,77.37
2022-10-05T16:31:18.256Z,77.58
2022-10-05T16:34:07.533Z,77.67
2022-10-05T16:37:02.756Z,77.62
2022-10-05T16:39:51.546Z,77.47
2022-10-05T16:42:34.855Z,77.54
2022-10-05T16:45:24.987Z,77.56
2022-10-05T16:47:57.422Z,77.60
2022-10-05T16:50:50.909Z,77.62
2022-10-05T16:53:27.747Z,77.80
2022-10-05T16:56:01.996Z,77.98
2022-10-05T16:58:39.530Z,78.01
2022-10-05T17:01:42.218Z,78.12
2022-10-05T17:04:12.256Z,78.17
2022-10-05T17:07:00.407Z,78.18
2022-10-05T17:09:59.853Z,78.29
2022-10-05T17:12:42.926Z,78.40
2022-10-05T17:15:31.782Z,78.51
2022-10-05T17:18:28.337Z,78.74
2022-10-05T17:21:16.427Z,78.64
2022-10-05T17:23:54.681Z,78.87
2022-10-05T17:26:21.633Z,78.99
2022-10-05T17:28:51.433Z,79.21
2022-10-05T17:31:22.630Z,79.48
2022-10-05T17:33:59.117Z,79.55
2022-10-05T17:36:51.506Z,79.82
2022-10-05T17:39:40.555Z,79.92
2022-10-05T17:42:26.302Z,80.16
2022-10-05T17:45:14.643Z,80.39
2022-10-05T17:48:01.343Z,80.60
2022-10-05T17:51:07.608Z,80.75
2022-10-05T17:54:06.049Z,80.87
2022-10-05T17:56:56.039Z,80.91
2022-10-05T17:59:46.254Z,81.11
2022-10-05T18:02:13.591Z,81.14
2022-10-05T18:04:42.277Z,81.33
2022-10-05T18:07:20.618Z,81.52
2022-10-05T18:10:00.356Z,81.81
2022-10-05T18:12:40.457Z,81.84
2022-10-05T18:15:07.703Z,81.92
2022-10-05T18:17:57.467Z,81.99
2022-10-05T18:20:25.524Z,81.77
2022-10-05T18:23:09.654Z,81.97
2022-10-05T18:26:18.286Z,82.01
2022-10-05T18:29:13.815Z,81.78
2022-10-05T18:31:56.538Z,81.76
2022-10-05T18:34:50.325Z,81.84
2022-10-05T18:37:29.664Z,81.79
2022-10-05T18:40:13.089Z,81.73
2022-10-05T18:43:02.442Z,81.70
2022-10-05T18:45:48.965Z,81.70
2022-10-05T18:48:42.800Z,81.95
2022-10-05T18:51:28.485Z,82.05
2022-10-05T18:54:09.549Z,81.99
2022-10-05T18:56:44.000Z,81.95
2022-10-05T18:59:32.210Z,81.52
2022-10-05T19:02:02.783Z,81.29
2022-10-05T19:04:47.928Z,81.28
2022-10-05T19:07:23.989Z,81.21
2022-10-05T19:10:02.859Z,81.15
2022-10-05T19:12:29.941Z,80.95
2022-10-05T19:15:17.826Z,80.73
2022-10-05T19:17:59.011Z,80.64
2022-10-05T19:20:48.951Z,80.39
2022-10-05T19:23:40.954Z,79.91
2022-10-05T19:26:13.790Z,79.73
2022-10-05T19:29:02.203Z,79.68
2022-10-05T19:31:37.296Z,79.60
2022-10-05T19:34:19.247Z,79.45
2022-10-05T19:37:19.073Z,79.37
2022-10-05T19:39:49.294Z,79.34
2022-10-05T19:42:45.162Z,79.47
2022-10-05T19:45:29.439Z,79.31
2022-10-05T19:48:07.446Z,79.37
2022-10-05T19:51:01.066Z,79.37
2022-10-05T19:53:37.708Z,79.59
2022-10-05T19:56:26.474Z,79.64
2022-10-05T19:58:56.517Z,79.84
2022-10-05T20:01:26.989Z,79.95
2022-10-05T20:03:54.243Z,80.01
2022-10-05T20:06:24.378Z,80.25
2022-10-05T20:08:54.424Z,80.34
2022-10-05T20:11:22.985Z,80.64
2022-10-05T20:14:12.918Z,80.90
2022-10-05T20:17:48.229Z,81.23
2022-10-05T20:20:38.372Z,81.27
2022-10-05T20:23:25.420Z,81.45
2022-10-05T20:26:11.834Z,81.50
2022-10-05T20:28:38.906Z,81.67
2022-10-05T20:31:07.885Z,81.89
2022-10-05T20:33:35.189Z,81.95
2022-10-05T20:36:03.729Z,82.13
2022-10-05T20:38:33.691Z,82.10
2022-10-05T20:41:03.400Z,82.29
2022-10-05T20:43:30.366Z,82.33
2022-10-05T20:45:57.854Z,82.30
2022-10-05T20:48:42.557Z,82.51
2022-10-05T20:51:09.601Z,82.48
2022-10-05T20:53:50.127Z,82.53
2022-10-05T20:56:17.220Z,82.74
2022-10-05T20:58:44.294Z,83.19
2022-10-05T21:01:19.629Z,83.37
2022-10-05T21:03:47.517Z,83.44
2022-10-05T21:06:14.648Z,83.66
2022-10-05T21:08:41.514Z,83.68
2022-10-05T21:11:11.187Z,83.83
2022-10-05T21:13:42.485Z,83.85
2022-10-05T21:16:13.013Z,83.79
2022-10-05T21:18:40.651Z,83.81
2022-10-05T21:21:08.115Z,83.71
2022-10-05T21:23:35.106Z,83.92
2022-10-05T21:26:02.629Z,84.04
2022-10-05T21:28:30.239Z,84.14
2022-10-05T21:30:57.526Z,84.46
2022-10-05T21:33:24.718Z,84.51
2022-10-05T21:35:52.201Z,84.67
2022-10-05T21:38:19.103Z,84.80
2022-10-05T21:40:46.351Z,84.88
2022-10-05T21:43:14.313Z,84.90
2022-10-05T21:45:42.626Z,84.92
2022-10-05T21:48:10.831Z,85.09
2022-10-05T21:50:38.730Z,85.39
2022-10-05T21:53:09.702Z,85.23
2022-10-05T21:55:40.516Z,85.51
2022-10-05T21:58:08.609Z,85.48
2022-10-05T22:00:35.667Z,85.61
2022-10-05T22:03:02.677Z,85.67
2022-10-05T22:05:29.772Z,85.71
2022-10-05T22:07:56.676Z,85.86
2022-10-05T22:10:23.892Z,85.98
2022-10-05T22:12:51.436Z,86.18
2022-10-05T22:15:18.417Z,86.26
2022-10-05T22:17:46.162Z,86.40
2022-10-05T22:20:14.529Z,86.44
2022-10-05T22:22:41.483Z,86.52
2022-10-05T22:25:08.514Z,86.55
2022-10-05T22:27:35.873Z,86.66
2022-10-05T22:30:03.754Z,86.76
2022-10-05T22:32:31.081Z,86.82
2022-10-05T22:34:58.371Z,86.98
2022-10-05T22:37:25.359Z,87.01
2022-10-05T22:39:52.323Z,87.05
2022-10-05T22:42:19.450Z,87.18
2022-10-05T22:44:46.320Z,87.28
2022-10-05T22:47:13.261Z,87.23
2022-10-05T22:49:40.369Z,87.32
2022-10-05T22:52:07.344Z,87.49
2022-10-05T22:54:37.222Z,87.52
2022-10-05T22:57:04.597Z,87.62
2022-10-05T22:59:31.713Z,87.49
2022-10-05T23:01:58.934Z,87.56
2022-10-05T23:04:26.171Z,87.68
2022-10-05T23:06:53.167Z,87.67
2022-10-05T23:09:20.009Z,87.64
2022-10-05T23:11:51.973Z,87.85
2022-10-05T23:14:19.526Z,87.98
2022-10-05T23:16:47.664Z,88.05
2022-10-05T23:19:15.066Z,88.11
2022-10-05T23:21:42.421Z,88.17
2022-10-05T23:24:09.700Z,88.14
2022-10-05T23:26:37.366Z,88.20
2022-10-05T23:29:04.253Z,88.31
2022-10-05T23:31:33.531Z,88.33
2022-10-05T23:34:00.725Z,88.57
2022-10-05T23:36:32.829Z,88.71
2022-10-05T23:39:00.275Z,88.95
2022-10-05T23:41:27.639Z,89.02
2022-10-05T23:43:57.134Z,89.27
2022-10-05T23:46:24.288Z,89.30
2022-10-05T23:48:53.220Z,89.52
2022-10-05T23:51:20.443Z,89.67
2022-10-05T23:53:47.673Z,89.74
2022-10-05T23:56:14.842Z,89.76
2022-10-05T23:58:41.988Z,89.87
